createdAt,value
2022-08-17T17:20:50.746Z,7.78
2022-08-17T17:23:17.515Z,7.50
2022-08-17T17:25:47.068Z,7.25
2022-08-17T17:28:15.908Z,7.30
2022-08-17T17:30:42.705Z,7.82
2022-08-17T17:33:09.491Z,7.13
2022-08-17T17:35:36.475Z,7.57
2022-08-17T17:38:03.195Z,8.50
2022-08-17T17:40:29.910Z,8.40
2022-08-17T17:43:02.298Z,7.85
2022-08-17T17:45:36.137Z,8.18
2022-08-17T17:48:02.818Z,7.88
2022-08-17T17:50:29.614Z,8.73
2022-08-17T17:52:56.439Z,7.85
2022-08-17T17:55:23.355Z,7.82
2022-08-17T17:57:50.367Z,8.30
2022-08-17T18:00:17.274Z,7.82
2022-08-17T18:02:47.340Z,7.55
2022-08-17T18:05:19.125Z,7.82
2022-08-17T18:07:46.541Z,8.68
2022-08-17T18:10:29.533Z,9.00
2022-08-17T18:12:56.749Z,8.50
2022-08-17T18:15:23.659Z,8.52
2022-08-17T18:17:51.006Z,8.25
2022-08-17T18:20:20.218Z,8.52
2022-08-17T18:23:02.722Z,8.45
2022-08-17T18:25:29.432Z,9.15
2022-08-17T18:27:56.193Z,8.63
2022-08-17T18:30:22.894Z,9.02
2022-08-17T18:32:49.670Z,8.88
2022-08-17T18:35:16.381Z,8.82
2022-08-17T18:37:43.245Z,8.68
2022-08-17T18:40:10.022Z,10.15
2022-08-17T18:42:38.760Z,8.60
2022-08-17T18:45:05.517Z,9.80
2022-08-17T18:47:32.646Z,9.55
2022-08-17T18:49:59.332Z,9.90
2022-08-17T18:52:27.910Z,10.00
2022-08-17T18:54:54.607Z,10.60
2022-08-17T18:57:21.562Z,10.55
2022-08-17T18:59:48.645Z,10.70
2022-08-17T19:02:23.123Z,11.15
2022-08-17T19:04:53.306Z,10.65
2022-08-17T19:07:20.022Z,10.85
2022-08-17T19:09:47.129Z,11.38
2022-08-17T19:12:13.839Z,11.38
2022-08-17T19:14:40.558Z,11.23
2022-08-17T19:17:07.383Z,11.40
2022-08-17T19:19:34.196Z,11.35
2022-08-17T19:22:00.886Z,11.57
2022-08-17T19:24:27.640Z,10.70
2022-08-17T19:26:56.433Z,10.85
2022-08-17T19:29:23.755Z,10.43
2022-08-17T19:31:50.613Z,9.75
2022-08-17T19:34:17.457Z,9.65
2022-08-17T19:36:59.979Z,8.88
2022-08-17T19:39:26.891Z,9.15
2022-08-17T19:42:05.339Z,8.68
2022-08-17T19:44:32.356Z,8.95
2022-08-17T19:47:00.886Z,8.80
2022-08-17T19:49:40.561Z,8.95
2022-08-17T19:52:08.273Z,8.73
2022-08-17T19:54:35.820Z,8.73
2022-08-17T19:57:02.806Z,9.52
2022-08-17T19:59:29.608Z,8.63
2022-08-17T20:02:03.345Z,7.95
2022-08-17T20:04:31.779Z,9.00
2022-08-17T20:06:59.478Z,9.45
2022-08-17T20:09:29.673Z,9.60
2022-08-17T20:12:00.641Z,9.45
2022-08-17T20:14:27.394Z,9.05
2022-08-17T20:16:54.161Z,9.00
2022-08-17T20:19:20.916Z,9.43
2022-08-17T20:21:47.763Z,9.20
2022-08-17T20:24:14.436Z,9.45
2022-08-17T20:26:41.186Z,9.50
2022-08-17T20:29:40.374Z,10.52
2022-08-17T20:32:07.446Z,9.82
2022-08-17T20:34:36.953Z,10.15
2022-08-17T20:37:04.662Z,11.45
2022-08-17T20:39:36.169Z,11.30
2022-08-17T20:42:02.937Z,11.52
2022-08-17T20:44:29.712Z,11.52
2022-08-17T20:46:56.579Z,11.98
2022-08-17T20:49:23.290Z,11.18
2022-08-17T20:51:54.656Z,11.98
2022-08-17T20:54:28.815Z,12.30
2022-08-17T20:56:57.732Z,12.52
2022-08-17T20:59:25.754Z,11.88
2022-08-17T21:01:53.042Z,13.15
2022-08-17T21:04:20.165Z,13.00
2022-08-17T21:06:46.877Z,12.55
2022-08-17T21:09:13.665Z,12.95
2022-08-17T21:12:02.398Z,12.48
